createdAt,value
2017-08-21T00:02:16.227Z,71.27
2017-08-21T00:04:43.618Z,71.66
2017-08-21T00:07:11.242Z,71.87
2017-08-21T00:09:38.634Z,71.75
2017-08-21T00:12:06.029Z,71.97
2017-08-21T00:14:33.431Z,71.77
2017-08-21T00:17:00.824Z,72.01
2017-08-21T00:19:28.218Z,71.98
2017-08-21T00:21:55.712Z,71.96
2017-08-21T00:24:23.294Z,71.56
2017-08-21T00:26:50.682Z,71.67
2017-08-21T00:29:18.098Z,71.68
2017-08-21T00:31:45.490Z,71.91
2017-08-21T00:34:12.890Z,71.51
2017-08-21T00:36:40.303Z,72.03
2017-08-21T00:39:07.703Z,72.06
2017-08-21T00:41:35.086Z,72.04
2017-08-21T00:44:02.482Z,71.87
2017-08-21T00:46:29.879Z,72.05
2017-08-21T00:48:57.267Z,71.87
2017-08-21T00:51:24.955Z,71.71
2017-08-21T00:56:42.841Z,72.35
2017-08-21T00:59:10.230Z,72.51
2017-08-21T01:01:37.626Z,72.56
2017-08-21T01:04:05.025Z,73.44
2017-08-21T01:06:32.418Z,73.89
2017-08-21T01:08:59.818Z,74.83
2017-08-21T01:11:27.206Z,75.21
2017-08-21T01:13:54.611Z,75.46
2017-08-21T01:16:22.026Z,75.02
2017-08-21T01:18:49.406Z,75.06
2017-08-21T01:21:16.794Z,75.74
2017-08-21T01:23:44.187Z,75.85
2017-08-21T01:26:11.580Z,75.89
2017-08-21T01:28:38.978Z,75.77
2017-08-21T01:31:06.369Z,75.55
2017-08-21T01:33:34.046Z,75.45
2017-08-21T01:36:01.439Z,75.65
2017-08-21T01:38:28.839Z,75.26
2017-08-21T01:40:56.223Z,74.75
2017-08-21T01:43:23.614Z,75.52
2017-08-21T01:45:51.007Z,75.15
2017-08-21T01:48:18.407Z,75.16
2017-08-21T01:50:45.795Z,75.23
2017-08-21T01:53:13.186Z,74.75
2017-08-21T01:55:40.783Z,74.33
2017-08-21T01:58:08.187Z,74.49
2017-08-21T02:00:35.567Z,75.14
2017-08-21T02:03:02.985Z,75.15
2017-08-21T02:05:30.366Z,74.71
2017-08-21T02:07:57.754Z,74.89
2017-08-21T02:10:25.156Z,75.30
2017-08-21T02:12:52.556Z,75.59
2017-08-21T02:15:19.957Z,75.57
2017-08-21T02:17:47.347Z,75.77
2017-08-21T02:20:14.783Z,76.09
2017-08-21T02:22:42.187Z,75.85
2017-08-21T02:25:09.574Z,75.84
2017-08-21T02:27:36.960Z,75.84
2017-08-21T02:30:04.362Z,75.59
2017-08-21T02:32:31.746Z,75.86
2017-08-21T02:34:59.145Z,75.96
2017-08-21T02:37:26.558Z,75.86
2017-08-21T02:39:53.944Z,75.10
2017-08-21T02:42:21.331Z,74.89
2017-08-21T02:44:48.735Z,74.42
2017-08-21T02:47:16.118Z,73.82
2017-08-21T02:49:43.522Z,74.00
2017-08-21T02:52:10.913Z,74.32
2017-08-21T02:54:38.322Z,74.38
2017-08-21T02:57:05.706Z,73.85
2017-08-21T02:59:33.091Z,73.49
2017-08-21T03:02:00.490Z,73.49
2017-08-21T03:04:27.887Z,73.81
2017-08-21T03:06:55.287Z,73.42
2017-08-21T03:09:22.678Z,73.57
2017-08-21T03:11:50.075Z,73.67
2017-08-21T03:14:17.470Z,73.49
2017-08-21T03:16:44.870Z,73.34
2017-08-21T03:19:12.246Z,73.07
2017-08-21T03:21:39.639Z,72.85
2017-08-21T03:24:07.026Z,73.31
2017-08-21T03:26:34.420Z,73.08
2017-08-21T03:29:01.811Z,73.06
2017-08-21T03:31:29.206Z,73.18
2017-08-21T03:33:56.685Z,72.72
2017-08-21T03:36:24.066Z,72.87
2017-08-21T03:38:51.452Z,72.85
2017-08-21T03:41:18.842Z,72.45
2017-08-21T03:43:46.230Z,73.04
2017-08-21T03:46:13.627Z,73.00
2017-08-21T03:48:41.030Z,72.65
2017-08-21T03:51:08.427Z,72.85
2017-08-21T03:53:35.823Z,72.98
2017-08-21T03:56:03.215Z,72.77
2017-08-21T03:58:30.602Z,72.94
2017-08-21T04:00:58.062Z,73.10
2017-08-21T04:03:25.482Z,72.92
2017-08-21T04:05:52.870Z,72.79
2017-08-21T04:08:20.263Z,73.01
2017-08-21T04:10:47.646Z,73.44
2017-08-21T04:13:15.038Z,73.11
2017-08-21T04:15:42.434Z,73.10
2017-08-21T04:18:09.846Z,73.15
2017-08-21T04:20:44.711Z,73.54
2017-08-21T04:23:12.167Z,73.56
2017-08-21T04:25:39.547Z,73.05
2017-08-21T04:28:06.938Z,72.85
2017-08-21T04:30:34.348Z,72.70
2017-08-21T04:33:01.767Z,73.14
2017-08-21T04:35:29.151Z,73.26
2017-08-21T04:37:56.562Z,73.52
2017-08-21T04:40:24.006Z,73.40
2017-08-21T04:42:51.382Z,73.65
2017-08-21T04:45:18.799Z,73.30
2017-08-21T04:47:46.186Z,73.37
2017-08-21T04:50:13.621Z,73.54
2017-08-21T04:52:41.009Z,73.21
2017-08-21T04:55:08.385Z,74.11
2017-08-21T04:57:35.783Z,74.08
2017-08-21T05:00:03.890Z,73.83
2017-08-21T05:02:31.331Z,74.32
2017-08-21T05:04:58.724Z,74.25
2017-08-21T05:07:26.106Z,75.15
2017-08-21T05:09:53.545Z,75.30
2017-08-21T05:12:20.942Z,75.46
2017-08-21T05:14:48.328Z,75.69
2017-08-21T05:17:15.828Z,75.48
2017-08-21T05:19:43.305Z,75.70
2017-08-21T05:22:10.720Z,75.94
2017-08-21T05:24:38.170Z,76.91
2017-08-21T05:27:05.544Z,76.88
2017-08-21T05:29:32.974Z,76.74
2017-08-21T05:32:00.391Z,77.33
2017-08-21T05:34:27.794Z,77.55
2017-08-21T05:36:55.219Z,77.71
2017-08-21T05:39:22.643Z,77.74
2017-08-21T05:41:50.035Z,77.98
2017-08-21T05:44:17.458Z,77.84
2017-08-21T05:46:44.876Z,77.93
2017-08-21T05:49:12.279Z,78.11
2017-08-21T05:51:39.671Z,78.55
2017-08-21T05:54:07.058Z,79.41
2017-08-21T05:56:34.450Z,79.21
2017-08-21T05:59:01.843Z,79.32
2017-08-21T06:03:55.919Z,79.76
2017-08-21T06:06:23.322Z,79.63
2017-08-21T06:08:50.706Z,79.58
2017-08-21T06:11:18.106Z,79.76
2017-08-21T06:13:45.497Z,80.03
2017-08-21T06:16:12.899Z,80.01
2017-08-21T06:18:40.301Z,79.83
2017-08-21T06:21:07.698Z,80.35
2017-08-21T06:23:35.087Z,80.82
2017-08-21T06:26:02.495Z,80.15
2017-08-21T06:28:29.893Z,80.05
2017-08-21T06:30:57.282Z,79.57
2017-08-21T06:33:24.686Z,79.99
2017-08-21T06:35:52.091Z,80.27
2017-08-21T06:38:19.490Z,81.03
2017-08-21T06:40:46.883Z,80.39
2017-08-21T06:43:14.285Z,80.05
2017-08-21T06:45:41.674Z,79.85
2017-08-21T06:48:09.063Z,79.92
2017-08-21T06:50:36.455Z,79.92
2017-08-21T06:53:03.889Z,80.40
2017-08-21T06:55:31.283Z,80.47
2017-08-21T06:57:58.694Z,79.79
2017-08-21T07:00:26.093Z,79.46
2017-08-21T07:02:53.492Z,79.17
2017-08-21T07:05:20.878Z,79.51
2017-08-21T07:07:48.300Z,79.54
2017-08-21T07:10:15.707Z,79.90
2017-08-21T07:12:43.095Z,79.66
2017-08-21T07:15:10.495Z,79.24
2017-08-21T07:17:37.895Z,79.05
2017-08-21T07:20:05.286Z,78.75
2017-08-21T07:22:32.699Z,78.48
2017-08-21T07:25:00.091Z,78.83
2017-08-21T07:27:27.486Z,78.45
2017-08-21T07:29:54.892Z,79.31
2017-08-21T07:32:22.274Z,79.37
2017-08-21T07:34:49.670Z,79.38
2017-08-21T07:37:17.062Z,79.17
2017-08-21T07:39:44.467Z,79.31
2017-08-21T07:42:11.865Z,79.70
2017-08-21T07:44:39.258Z,79.69
2017-08-21T07:47:06.650Z,79.22
2017-08-21T07:49:34.052Z,79.55
2017-08-21T07:52:01.439Z,79.20
2017-08-21T07:54:28.843Z,78.61
2017-08-21T07:56:56.236Z,78.43
2017-08-21T07:59:23.648Z,78.26
2017-08-21T08:01:51.031Z,77.89
2017-08-21T08:04:18.427Z,77.89
2017-08-21T08:06:45.826Z,77.95
2017-08-21T08:09:13.214Z,77.01
2017-08-21T08:11:40.622Z,77.04
2017-08-21T08:14:08.014Z,76.53
2017-08-21T08:16:35.410Z,77.43
2017-08-21T08:19:02.796Z,77.06
2017-08-21T08:21:30.202Z,76.40
2017-08-21T08:23:57.590Z,75.62
2017-08-21T08:26:24.976Z,74.05
2017-08-21T08:28:52.384Z,74.17
2017-08-21T08:31:19.777Z,73.32
2017-08-21T08:33:47.194Z,74.07
2017-08-21T08:36:14.595Z,73.96
2017-08-21T08:38:42.036Z,74.54
2017-08-21T08:41:09.409Z,72.11
2017-08-21T08:43:36.798Z,73.12
2017-08-21T08:46:04.200Z,72.33
2017-08-21T08:48:31.588Z,73.28
2017-08-21T08:50:58.982Z,73.43
2017-08-21T08:53:26.374Z,74.29
2017-08-21T08:55:53.774Z,72.82
2017-08-21T08:58:21.175Z,72.99
2017-08-21T09:00:48.570Z,72.02
2017-08-21T09:03:15.986Z,71.54
2017-08-21T09:05:43.349Z,71.37
2017-08-21T09:08:10.751Z,71.36
2017-08-21T09:10:38.134Z,71.92
2017-08-21T09:13:05.536Z,72.08
2017-08-21T09:15:32.937Z,71.71
2017-08-21T09:18:00.323Z,71.31
2017-08-21T09:20:27.732Z,71.08
2017-08-21T09:22:55.105Z,71.43
2017-08-21T09:25:22.494Z,69.76
2017-08-21T09:27:49.900Z,71.50
2017-08-21T09:30:17.290Z,70.88
2017-08-21T09:32:44.689Z,71.53
2017-08-21T09:35:12.073Z,69.85
2017-08-21T09:37:39.463Z,68.27
2017-08-21T09:40:06.850Z,69.60
2017-08-21T09:42:34.269Z,68.05
2017-08-21T09:45:01.651Z,68.85
2017-08-21T09:47:29.050Z,68.98
2017-08-21T09:49:56.430Z,69.47
2017-08-21T09:52:23.824Z,68.25
2017-08-21T09:54:51.214Z,68.43
2017-08-21T09:57:18.603Z,67.74
2017-08-21T09:59:46.002Z,68.42
2017-08-21T10:02:13.390Z,68.30
2017-08-21T10:04:40.782Z,69.09
2017-08-21T10:07:08.163Z,68.85
2017-08-21T10:09:35.563Z,68.19
2017-08-21T10:12:02.951Z,68.95
2017-08-21T10:14:30.523Z,69.24
2017-08-21T10:16:57.910Z,68.47
2017-08-21T10:19:25.302Z,68.26
2017-08-21T10:21:52.681Z,67.95
2017-08-21T10:24:20.071Z,66.96
2017-08-21T10:26:47.460Z,66.27
2017-08-21T10:29:14.847Z,66.80
2017-08-21T10:31:42.240Z,67.30
2017-08-21T10:34:09.624Z,67.24
2017-08-21T10:36:37.014Z,67.08
2017-08-21T10:39:04.441Z,67.79
2017-08-21T10:41:31.831Z,65.81
2017-08-21T10:43:59.276Z,66.75
2017-08-21T10:46:26.711Z,65.28
2017-08-21T10:48:54.088Z,65.51
2017-08-21T10:51:21.479Z,66.18
2017-08-21T10:53:48.867Z,64.99
2017-08-21T10:56:16.252Z,63.42
2017-08-21T10:58:43.636Z,64.93
2017-08-21T11:01:11.040Z,65.84
2017-08-21T11:03:38.421Z,66.55
2017-08-21T11:06:05.826Z,66.40
2017-08-21T11:08:33.219Z,66.83
2017-08-21T11:11:00.618Z,66.58
2017-08-21T11:13:28.000Z,65.58
2017-08-21T11:15:55.398Z,65.98
2017-08-21T11:18:22.792Z,65.49
2017-08-21T11:20:50.190Z,64.57
2017-08-21T11:23:17.583Z,63.58
2017-08-21T11:25:44.987Z,63.53
2017-08-21T11:28:12.378Z,62.06
2017-08-21T11:30:39.767Z,62.57
2017-08-21T11:33:07.166Z,63.62
2017-08-21T11:35:34.559Z,63.65
2017-08-21T11:38:01.958Z,63.72
2017-08-21T11:40:29.350Z,63.10
2017-08-21T11:42:56.742Z,63.74
2017-08-21T11:45:24.126Z,65.34
2017-08-21T11:47:51.523Z,65.35
2017-08-21T11:50:18.902Z,65.61
2017-08-21T11:52:46.292Z,64.68
2017-08-21T11:55:13.688Z,64.53
2017-08-21T11:57:41.078Z,64.20
2017-08-21T12:00:08.470Z,62.37
2017-08-21T12:02:35.883Z,62.77
2017-08-21T12:05:03.272Z,62.00
2017-08-21T12:07:30.738Z,62.38
2017-08-21T12:09:58.363Z,62.51
2017-08-21T12:12:25.760Z,62.25
2017-08-21T12:14:53.143Z,63.27
2017-08-21T12:17:20.564Z,62.74
2017-08-21T12:19:47.931Z,62.67
2017-08-21T12:22:15.326Z,64.70
2017-08-21T12:24:42.716Z,66.17
2017-08-21T12:27:10.111Z,69.19
2017-08-21T12:29:37.499Z,71.46
2017-08-21T12:32:04.913Z,70.07
2017-08-21T12:34:32.290Z,68.84
2017-08-21T12:36:59.675Z,69.37
2017-08-21T12:39:27.080Z,70.74
2017-08-21T12:41:54.503Z,71.40
2017-08-21T12:44:21.900Z,71.18
2017-08-21T12:46:49.297Z,70.24
2017-08-21T12:49:16.687Z,68.25
2017-08-21T12:51:44.071Z,68.86
2017-08-21T12:54:11.459Z,68.77
2017-08-21T12:56:38.848Z,69.03
2017-08-21T12:59:06.239Z,69.56
2017-08-21T13:01:33.632Z,67.82
2017-08-21T13:04:01.024Z,67.74
2017-08-21T13:06:28.407Z,67.55
2017-08-21T13:08:55.811Z,68.37
2017-08-21T13:11:23.201Z,67.89
2017-08-21T13:13:50.586Z,67.36
2017-08-21T13:16:17.995Z,66.99
2017-08-21T13:18:45.616Z,67.94
2017-08-21T13:21:12.998Z,67.05
2017-08-21T13:23:40.395Z,67.50
2017-08-21T13:26:07.774Z,66.66
2017-08-21T13:28:35.177Z,67.05
2017-08-21T13:31:02.566Z,68.19
2017-08-21T13:33:29.966Z,68.28
2017-08-21T13:35:57.346Z,68.44
2017-08-21T13:38:24.741Z,67.25
2017-08-21T13:40:52.126Z,66.80
2017-08-21T13:43:19.525Z,65.37
2017-08-21T13:45:46.916Z,66.91
2017-08-21T13:48:14.310Z,67.33
2017-08-21T13:50:41.699Z,68.60
2017-08-21T13:53:09.103Z,69.60
2017-08-21T13:55:36.490Z,63.46
2017-08-21T13:58:03.882Z,64.84
2017-08-21T14:00:31.274Z,64.90
2017-08-21T14:02:58.658Z,64.72
2017-08-21T14:05:26.051Z,63.04
2017-08-21T14:07:53.446Z,63.65
2017-08-21T14:10:20.834Z,63.93
2017-08-21T14:12:48.223Z,63.78
2017-08-21T14:15:15.629Z,64.34
2017-08-21T14:17:43.010Z,63.71
2017-08-21T14:20:10.402Z,63.99
2017-08-21T14:22:37.797Z,64.60
2017-08-21T14:25:05.207Z,65.26
2017-08-21T14:27:32.599Z,65.78
2017-08-21T14:30:00.012Z,66.18
2017-08-21T14:32:27.396Z,67.14
2017-08-21T14:34:54.783Z,67.55
2017-08-21T14:37:22.174Z,67.34
2017-08-21T14:39:49.563Z,68.21
2017-08-21T14:42:16.967Z,68.43
2017-08-21T14:44:44.354Z,68.62
2017-08-21T14:47:12.278Z,68.43
2017-08-21T14:49:40.075Z,67.94
2017-08-21T14:52:07.515Z,67.36
2017-08-21T14:54:35.203Z,66.43
2017-08-21T14:57:03.619Z,66.62
2017-08-21T14:59:31.011Z,65.00
2017-08-21T15:01:58.439Z,64.36
2017-08-21T15:04:25.817Z,63.03
2017-08-21T15:06:53.215Z,63.39
2017-08-21T15:09:20.824Z,63.74
2017-08-21T15:11:48.231Z,62.97
2017-08-21T15:14:15.622Z,63.18
2017-08-21T15:16:43.015Z,63.79
2017-08-21T15:19:10.406Z,63.23
2017-08-21T15:21:37.823Z,64.27
2017-08-21T15:24:05.216Z,63.70
2017-08-21T15:26:32.611Z,63.77
2017-08-21T15:29:00.011Z,62.93
2017-08-21T15:31:27.399Z,63.17
2017-08-21T15:33:54.799Z,62.62
2017-08-21T15:36:22.193Z,62.48
2017-08-21T15:38:49.592Z,62.28
2017-08-21T15:41:16.983Z,62.54
2017-08-21T15:43:44.370Z,63.36
2017-08-21T15:46:11.778Z,62.27
2017-08-21T15:48:39.185Z,62.06
2017-08-21T15:51:06.775Z,62.08
2017-08-21T15:53:34.172Z,63.40
2017-08-21T15:56:01.560Z,62.98
2017-08-21T15:58:28.959Z,63.23
2017-08-21T16:00:56.348Z,63.67
2017-08-21T16:03:23.754Z,63.02
2017-08-21T16:05:51.135Z,63.49
2017-08-21T16:08:18.538Z,63.02
2017-08-21T16:10:45.953Z,62.66
2017-08-21T16:13:13.352Z,62.79
2017-08-21T16:15:40.735Z,62.73
2017-08-21T16:18:08.158Z,62.76
2017-08-21T16:20:35.531Z,61.93
2017-08-21T16:23:02.923Z,62.13
2017-08-21T16:25:30.319Z,62.41
2017-08-21T16:27:57.723Z,62.89
2017-08-21T16:30:25.394Z,62.61
2017-08-21T16:32:52.796Z,63.43
2017-08-21T16:35:20.200Z,63.66
2017-08-21T16:40:37.742Z,62.98
2017-08-21T16:43:05.126Z,63.05
2017-08-21T16:45:32.518Z,63.22
2017-08-21T16:47:59.907Z,63.11
2017-08-21T16:50:27.307Z,62.48
2017-08-21T16:52:54.699Z,62.71
2017-08-21T16:55:22.187Z,62.79
2017-08-21T16:57:49.562Z,62.55
2017-08-21T17:00:16.954Z,62.18
2017-08-21T17:02:44.356Z,62.36
2017-08-21T17:05:11.769Z,62.17
2017-08-21T17:07:39.151Z,61.47
2017-08-21T17:10:06.555Z,61.72
2017-08-21T17:12:33.938Z,62.16
2017-08-21T17:15:01.323Z,62.41
2017-08-21T17:17:28.714Z,62.13
2017-08-21T17:19:56.099Z,62.24
2017-08-21T17:22:23.507Z,62.26
2017-08-21T17:24:50.913Z,62.45
2017-08-21T17:27:18.308Z,62.75
2017-08-21T17:29:45.697Z,63.43
2017-08-21T17:32:13.091Z,64.49
2017-08-21T17:34:40.480Z,64.82
2017-08-21T17:37:07.874Z,65.21
2017-08-21T17:39:35.266Z,63.93
2017-08-21T17:42:02.694Z,64.38
2017-08-21T17:44:30.076Z,64.29
2017-08-21T17:46:57.471Z,64.48
2017-08-21T17:49:24.858Z,64.73
2017-08-21T17:51:52.251Z,65.05
2017-08-21T17:54:19.635Z,65.59
2017-08-21T17:56:47.022Z,65.72
2017-08-21T17:59:14.415Z,65.46
2017-08-21T18:01:41.823Z,65.07
2017-08-21T18:04:09.207Z,64.85
2017-08-21T18:06:36.599Z,64.94
2017-08-21T18:09:04.006Z,65.37
2017-08-21T18:11:31.395Z,65.70
2017-08-21T18:13:58.790Z,65.56
2017-08-21T18:16:26.179Z,65.83
2017-08-21T18:18:53.566Z,65.89
2017-08-21T18:21:20.955Z,64.62
2017-08-21T18:23:48.358Z,64.42
2017-08-21T18:26:15.746Z,64.75
2017-08-21T18:28:43.138Z,64.37
2017-08-21T18:31:10.527Z,64.56
2017-08-21T18:33:37.927Z,64.42
2017-08-21T18:36:05.325Z,64.22
2017-08-21T18:38:32.718Z,64.43
2017-08-21T18:41:00.103Z,64.52
2017-08-21T18:43:27.552Z,64.36
2017-08-21T18:45:55.025Z,64.02
2017-08-21T18:48:22.426Z,64.12
2017-08-21T18:50:49.880Z,64.20
2017-08-21T18:53:17.263Z,64.15
2017-08-21T18:55:44.671Z,64.19
2017-08-21T18:58:12.411Z,64.35
2017-08-21T19:00:39.815Z,63.85
2017-08-21T19:03:07.206Z,63.72
2017-08-21T19:05:34.599Z,63.67
2017-08-21T19:08:01.990Z,63.60
2017-08-21T19:10:29.395Z,63.43
2017-08-21T19:12:56.791Z,63.30
2017-08-21T19:15:24.182Z,63.34
2017-08-21T19:17:51.573Z,63.49
2017-08-21T19:20:18.968Z,63.44
2017-08-21T19:22:46.358Z,64.69
2017-08-21T19:25:13.747Z,64.28
2017-08-21T19:27:41.156Z,63.88
2017-08-21T19:30:08.544Z,63.50
2017-08-21T19:32:35.932Z,63.35
2017-08-21T19:35:03.338Z,63.62
2017-08-21T19:37:30.749Z,63.39
2017-08-21T19:39:58.143Z,63.43
2017-08-21T19:42:25.532Z,63.55
2017-08-21T19:44:53.068Z,63.79
2017-08-21T19:49:53.409Z,63.35
2017-08-21T19:52:20.818Z,63.26
2017-08-21T19:54:48.206Z,63.71
2017-08-21T19:57:15.631Z,64.20
2017-08-21T19:59:43.029Z,63.81
2017-08-21T20:02:10.412Z,63.84
2017-08-21T20:04:37.823Z,64.01
2017-08-21T20:07:05.210Z,63.70
2017-08-21T20:09:32.611Z,63.56
2017-08-21T20:12:00.013Z,63.37
2017-08-21T20:14:27.395Z,63.57
2017-08-21T20:16:54.796Z,63.32
2017-08-21T20:19:22.186Z,63.20
2017-08-21T20:21:49.591Z,63.43
2017-08-21T20:24:16.974Z,63.61
2017-08-21T20:26:44.583Z,63.49
2017-08-21T20:29:15.221Z,63.70
2017-08-21T20:31:48.141Z,63.82
2017-08-21T20:34:16.541Z,63.95
2017-08-21T20:36:44.109Z,63.71
2017-08-21T20:39:11.510Z,63.83
2017-08-21T20:41:38.913Z,63.65
2017-08-21T20:44:06.302Z,63.60
2017-08-21T20:46:33.718Z,63.03
2017-08-21T20:49:01.175Z,63.65
2017-08-21T20:51:28.799Z,63.84
2017-08-21T20:53:56.188Z,64.02
2017-08-21T20:56:49.330Z,63.85
2017-08-21T20:59:16.727Z,64.11
2017-08-21T21:01:44.128Z,63.70
2017-08-21T21:04:12.758Z,63.84
2017-08-21T21:06:40.151Z,63.66
2017-08-21T21:09:07.570Z,63.66
2017-08-21T21:11:34.962Z,63.14
2017-08-21T21:14:02.354Z,63.43
2017-08-21T21:16:29.735Z,63.08
2017-08-21T21:18:57.122Z,62.85
2017-08-21T21:21:24.503Z,63.12
2017-08-21T21:23:51.898Z,63.03
2017-08-21T21:26:19.300Z,63.08
2017-08-21T21:28:46.691Z,63.01
2017-08-21T21:31:14.083Z,62.81
2017-08-21T21:33:41.467Z,63.10
2017-08-21T21:36:08.867Z,63.55
2017-08-21T21:38:36.258Z,63.42
2017-08-21T21:41:03.824Z,63.44
2017-08-21T21:43:31.478Z,63.33
2017-08-21T21:45:58.873Z,63.48
2017-08-21T21:48:26.260Z,63.88
2017-08-21T21:50:53.651Z,63.93
2017-08-21T21:53:21.046Z,64.05
2017-08-21T21:55:48.450Z,64.29
2017-08-21T21:58:15.838Z,63.73
2017-08-21T22:00:43.243Z,63.88
2017-08-21T22:03:10.630Z,63.79
2017-08-21T22:05:38.068Z,63.04
2017-08-21T22:08:05.457Z,62.98
2017-08-21T22:10:32.846Z,63.66
2017-08-21T22:13:00.235Z,63.29
2017-08-21T22:15:27.620Z,63.13
2017-08-21T22:17:55.014Z,63.21
2017-08-21T22:20:22.412Z,63.34
2017-08-21T22:22:49.807Z,63.07
2017-08-21T22:25:17.190Z,63.29
2017-08-21T22:27:44.582Z,63.75
2017-08-21T22:30:11.970Z,63.19
2017-08-21T22:32:39.383Z,63.04
2017-08-21T22:35:06.781Z,62.82
2017-08-21T22:37:35.044Z,63.27
2017-08-21T22:40:02.427Z,63.39
2017-08-21T22:42:29.836Z,63.31
2017-08-21T22:44:57.226Z,64.14
2017-08-21T22:47:24.622Z,64.04
2017-08-21T22:49:52.034Z,63.84
2017-08-21T22:52:19.415Z,65.78
2017-08-21T22:54:46.812Z,64.25
2017-08-21T22:57:14.203Z,64.16
2017-08-21T22:59:41.606Z,64.47
2017-08-21T23:02:08.994Z,65.11
2017-08-21T23:04:36.599Z,65.42
2017-08-21T23:07:04.636Z,65.26
2017-08-21T23:09:32.018Z,64.78
2017-08-21T23:11:59.403Z,64.20
2017-08-21T23:14:26.811Z,64.70
2017-08-21T23:16:54.206Z,64.75
2017-08-21T23:19:21.590Z,64.77
2017-08-21T23:21:48.987Z,64.39
2017-08-21T23:24:16.375Z,64.40
2017-08-21T23:26:43.775Z,64.75
2017-08-21T23:29:11.166Z,65.06
2017-08-21T23:31:38.563Z,65.04
2017-08-21T23:34:05.963Z,65.49
2017-08-21T23:36:34.242Z,65.44
2017-08-21T23:39:01.627Z,65.78
2017-08-21T23:41:29.022Z,65.66
2017-08-21T23:43:56.414Z,65.64
2017-08-21T23:46:23.810Z,65.86
2017-08-21T23:48:51.202Z,65.62
2017-08-21T23:51:18.630Z,65.57
2017-08-21T23:53:46.014Z,65.30
2017-08-21T23:56:13.406Z,65.71
2017-08-21T23:58:40.794Z,65.51
